Time;durP1;ratioP1;P1;durP2;ratioP2;P2;SDS_P1;SDS_P2;PMS_P1;PMS_P2;Temp;Humidity;BMP_temperature;BMP_pressure;BME280_temperature;BME280_humidity;BME280_pressure;Samples;Min_cycle;Max_cycle;Signal;HPM_P1;HPM_P2
2023/05/02 00:02:13;;;;;;;54.80;38.70;;;10.80;88.00;;;;;;4977090;28;20186;-87
2023/05/02 00:04:39;;;;;;;56.70;42.33;;;10.80;88.20;;;;;;4975758;28;20681;-87
2023/05/02 00:07:04;;;;;;;51.77;41.23;;;10.70;88.90;;;;;;4975834;28;20314;-87
2023/05/02 00:09:30;;;;;;;52.87;38.00;;;10.70;89.00;;;;;;4977254;28;20178;-87
2023/05/02 00:11:55;;;;;;;49.53;37.80;;;10.60;89.20;;;;;;4976363;28;20179;-87
2023/05/02 00:14:21;;;;;;;51.87;37.53;;;10.60;89.40;;;;;;4975663;28;20171;-87
2023/05/02 00:16:46;;;;;;;47.30;35.10;;;10.60;89.50;;;;;;4975701;28;20199;-88
2023/05/02 00:19:12;;;;;;;51.30;34.73;;;10.60;89.60;;;;;;4975708;28;20233;-87
2023/05/02 00:21:38;;;;;;;51.67;37.10;;;10.60;89.50;;;;;;4975601;28;20229;-88
2023/05/02 00:24:03;;;;;;;44.77;33.70;;;10.60;89.30;;;;;;4975464;28;20637;-87
2023/05/02 00:26:29;;;;;;;41.70;30.07;;;10.60;89.40;;;;;;4976528;28;20210;-88
2023/05/02 00:28:56;;;;;;;45.70;30.43;;;10.50;89.50;;;;;;4977002;28;20633;-88
2023/05/02 00:31:24;;;;;;;41.53;28.87;;;10.50;89.40;;;;;;4977100;28;20175;-88
2023/05/02 00:33:50;;;;;;;44.20;26.13;;;10.50;90.00;;;;;;4975269;28;20676;-87
2023/05/02 00:36:17;;;;;;;43.67;26.40;;;10.40;90.60;;;;;;4976149;28;20179;-88
2023/05/02 00:38:43;;;;;;;38.10;23.43;;;10.40;90.60;;;;;;4975206;28;20190;-87
2023/05/02 00:41:09;;;;;;;48.17;26.70;;;10.30;91.00;;;;;;4975241;28;20554;-87
2023/05/02 00:43:36;;;;;;;30.67;19.93;;;10.30;91.30;;;;;;4975396;28;20182;-87
2023/05/02 00:46:02;;;;;;;40.37;23.70;;;10.30;91.70;;;;;;4975115;28;20213;-87
2023/05/02 00:48:27;;;;;;;43.87;24.20;;;10.20;91.90;;;;;;4975306;28;20191;-88
2023/05/02 00:50:53;;;;;;;38.53;20.27;;;10.20;92.00;;;;;;4976383;28;20193;-88
2023/05/02 00:53:19;;;;;;;42.77;21.90;;;10.20;92.10;;;;;;4975035;28;20265;-90
2023/05/02 00:55:45;;;;;;;40.43;23.10;;;10.20;92.20;;;;;;4976217;28;20235;-86
2023/05/02 00:58:13;;;;;;;41.13;24.17;;;10.20;92.10;;;;;;4975724;28;20269;-88
2023/05/02 01:00:53;;;;;;;40.87;22.97;;;10.30;92.10;;;;;;4974935;28;20179;-86
2023/05/02 01:03:40;;;;;;;35.20;21.80;;;10.30;92.00;;;;;;4976310;28;20165;-89
2023/05/02 01:06:21;;;;;;;37.60;21.27;;;10.30;92.00;;;;;;4975561;28;20229;-87
2023/05/02 01:08:56;;;;;;;35.83;19.10;;;10.20;92.20;;;;;;4991675;28;20174;-89
2023/05/02 01:11:34;;;;;;;34.03;17.63;;;10.30;92.10;;;;;;4975526;28;20680;-87
2023/05/02 01:14:04;;;;;;;39.57;19.23;;;10.20;92.40;;;;;;4991195;28;20163;-89
2023/05/02 01:16:31;;;;;;;35.03;18.87;;;10.20;92.40;;;;;;4975750;28;20194;-87
2023/05/02 01:18:58;;;;;;;32.60;17.70;;;10.20;92.50;;;;;;4975843;28;20179;-87
2023/05/02 01:21:25;;;;;;;39.07;19.10;;;10.30;92.50;;;;;;4974425;28;20210;-90
2023/05/02 01:24:08;;;;;;;35.00;18.27;;;10.30;92.60;;;;;;4974416;28;20179;-89
2023/05/02 01:27:01;;;;;;;38.07;18.90;;;10.20;92.70;;;;;;4990579;28;20731;-90
2023/05/02 01:29:28;;;;;;;29.73;16.50;;;10.20;92.70;;;;;;4975314;28;20199;-90
2023/05/02 01:31:56;;;;;;;28.87;17.50;;;10.20;92.70;;;;;;4974259;28;20660;-87
2023/05/02 01:34:22;;;;;;;21.63;13.47;;;10.20;92.70;;;;;;4974261;28;20239;-87
2023/05/02 01:36:49;;;;;;;16.73;9.03;;;10.30;92.60;;;;;;4974419;28;20226;-87
2023/05/02 01:39:19;;;;;;;14.23;9.40;;;10.20;92.30;;;;;;4974313;28;20183;-87
2023/05/02 01:41:48;;;;;;;9.30;7.63;;;10.30;92.30;;;;;;4974702;28;20274;-87
2023/05/02 01:44:16;;;;;;;14.83;12.67;;;10.20;92.00;;;;;;4974093;28;20233;-87
2023/05/02 01:46:43;;;;;;;12.47;11.17;;;10.20;91.90;;;;;;4975070;28;20203;-87
2023/05/02 01:49:09;;;;;;;12.43;11.13;;;10.20;91.70;;;;;;4973916;28;20174;-87
2023/05/02 01:51:42;;;;;;;12.83;11.27;;;10.10;91.40;;;;;;4975099;28;20177;-87
2023/05/02 01:54:09;;;;;;;15.07;10.67;;;10.00;91.30;;;;;;4975392;28;20622;-87
2023/05/02 01:56:37;;;;;;;8.73;6.30;;;10.00;91.10;;;;;;4973862;28;20202;-87
2023/05/02 01:59:07;;;;;;;10.20;7.07;;;10.00;91.10;;;;;;4973788;28;20664;-87
2023/05/02 02:01:35;;;;;;;14.50;13.23;;;10.00;91.10;;;;;;4974995;28;20151;-86
2023/05/02 02:04:01;;;;;;;26.03;16.87;;;10.00;90.90;;;;;;4975225;28;20193;-87
2023/05/02 02:06:27;;;;;;;19.30;16.90;;;10.00;90.50;;;;;;4974832;28;20704;-87
2023/05/02 02:08:53;;;;;;;32.63;18.27;;;9.90;90.20;;;;;;4974629;28;20179;-87
2023/05/02 02:11:26;;;;;;;29.37;18.57;;;9.80;89.90;;;;;;4973199;28;20183;-87
2023/05/02 02:13:59;;;;;;;35.17;19.37;;;9.70;89.30;;;;;;4973598;28;20175;-87
2023/05/02 02:16:29;;;;;;;29.07;13.33;;;9.60;88.90;;;;;;4974795;28;20159;-86
2023/05/02 02:18:57;;;;;;;31.47;14.17;;;9.60;88.70;;;;;;4973986;28;20163;-86
2023/05/02 02:21:26;;;;;;;37.40;20.43;;;9.50;88.50;;;;;;4974677;28;20190;-86
2023/05/02 02:23:54;;;;;;;41.77;20.47;;;9.50;88.20;;;;;;4974639;28;20174;-86
2023/05/02 02:26:21;;;;;;;38.40;17.13;;;9.30;87.70;;;;;;4974783;28;20619;-86
2023/05/02 02:28:47;;;;;;;38.37;17.67;;;9.30;87.50;;;;;;4974628;28;20171;-89
2023/05/02 02:31:12;;;;;;;39.57;17.97;;;9.10;87.40;;;;;;4974620;28;20175;-87
2023/05/02 02:33:38;;;;;;;31.13;17.20;;;9.10;87.30;;;;;;4973891;28;20304;-87
2023/05/02 02:36:27;;;;;;;28.03;9.67;;;9.10;86.70;;;;;;4974488;28;20179;-86
2023/05/02 02:39:22;;;;;;;28.23;10.40;;;9.10;86.10;;;;;;4972897;28;20245;-87
2023/05/02 02:42:16;;;;;;;27.97;16.47;;;9.00;85.40;;;;;;4974416;28;20245;-86
2023/05/02 02:44:51;;;;;;;31.20;17.40;;;9.10;85.10;;;;;;4973098;28;20278;-89
2023/05/02 02:47:35;;;;;;;26.73;17.13;;;9.00;84.70;;;;;;4974581;28;20196;-89
2023/05/02 02:50:23;;;;;;;30.47;18.10;;;8.90;84.40;;;;;;4973255;28;20269;-89
2023/05/02 02:52:56;;;;;;;36.07;18.97;;;8.90;84.40;;;;;;4974978;28;20614;-89
2023/05/02 02:56:05;;;;;;;28.20;11.07;;;8.80;84.30;;;;;;4990123;28;20190;-86
2023/05/02 02:59:12;;;;;;;23.43;10.27;;;8.80;84.50;;;;;;4973394;28;20213;-86
2023/05/02 03:01:40;;;;;;;28.97;10.73;;;8.80;84.40;;;;;;4952941;29;20183;-86
2023/05/02 03:04:07;;;;;;;27.63;10.33;;;8.80;84.40;;;;;;4970162;28;20187;-86
2023/05/02 03:06:33;;;;;;;29.53;10.17;;;8.80;84.40;;;;;;4972890;28;20268;-86
2023/05/02 03:08:59;;;;;;;24.90;10.37;;;8.80;83.80;;;;;;4973089;28;20273;-86
2023/05/02 03:11:25;;;;;;;28.17;11.33;;;8.70;83.50;;;;;;4972981;28;20559;-86
2023/05/02 03:13:51;;;;;;;29.10;10.90;;;8.60;83.70;;;;;;4973295;28;20189;-89
2023/05/02 03:16:37;;;;;;;26.17;10.60;;;8.70;83.10;;;;;;4974046;28;20178;-88
2023/05/02 03:19:04;;;;;;;29.73;10.97;;;8.60;82.70;;;;;;4973027;28;20175;-88
2023/05/02 03:21:30;;;;;;;25.03;11.33;;;8.60;82.50;;;;;;4974791;28;20179;-88
2023/05/02 03:24:00;;;;;;;24.63;10.77;;;8.60;82.40;;;;;;4977829;28;20201;-88
2023/05/02 03:26:26;;;;;;;28.30;12.23;;;8.50;81.90;;;;;;4976468;28;20217;-88
2023/05/02 03:28:52;;;;;;;25.63;11.67;;;8.50;81.80;;;;;;4976787;28;20187;-88
2023/05/02 03:31:18;;;;;;;25.87;12.20;;;8.40;81.50;;;;;;4977794;28;20645;-88
2023/05/02 03:33:43;;;;;;;32.17;22.50;;;8.40;81.50;;;;;;4976386;28;20285;-88
2023/05/02 03:36:10;;;;;;;31.80;21.13;;;8.50;81.40;;;;;;4977551;28;20181;-88
2023/05/02 03:38:36;;;;;;;34.73;21.67;;;8.30;81.20;;;;;;4976388;28;20178;-88
2023/05/02 03:41:02;;;;;;;35.27;21.40;;;8.20;81.00;;;;;;4976259;28;20179;-88
2023/05/02 03:43:28;;;;;;;34.33;20.17;;;8.20;81.00;;;;;;4977462;28;20228;-88
2023/05/02 03:45:54;;;;;;;32.07;20.93;;;8.20;80.60;;;;;;4992448;28;20210;-88
2023/05/02 03:48:19;;;;;;;20.40;10.73;;;8.20;80.50;;;;;;4977348;28;20191;-88
2023/05/02 03:50:45;;;;;;;22.17;10.00;;;8.20;80.30;;;;;;4976153;28;20179;-88
2023/05/02 03:53:11;;;;;;;29.17;11.73;;;8.10;79.90;;;;;;4977308;28;20595;-88
2023/05/02 03:55:39;;;;;;;42.13;20.53;;;8.10;79.70;;;;;;4977550;28;20179;-88
2023/05/02 03:58:06;;;;;;;36.43;19.80;;;8.10;79.10;;;;;;4975926;28;20553;-88
2023/05/02 04:00:31;;;;;;;29.10;19.00;;;8.10;78.80;;;;;;4977183;28;20307;-88
2023/05/02 04:02:59;;;;;;;34.70;19.13;;;8.00;78.60;;;;;;4976030;28;20182;-88
2023/05/02 04:05:24;;;;;;;38.97;19.27;;;8.10;78.40;;;;;;4976967;28;20281;-88
2023/05/02 04:07:50;;;;;;;33.20;18.00;;;8.00;78.30;;;;;;4977069;28;20277;-88
2023/05/02 04:10:16;;;;;;;26.43;10.30;;;8.00;78.70;;;;;;4975816;28;20261;-88
2023/05/02 04:12:42;;;;;;;31.40;11.00;;;8.00;79.00;;;;;;4975815;28;20190;-88
2023/05/02 04:15:09;;;;;;;25.63;9.77;;;7.90;79.00;;;;;;4976950;28;20178;-88
2023/05/02 04:17:35;;;;;;;32.53;18.17;;;7.80;78.80;;;;;;4975663;28;20207;-88
2023/05/02 04:20:00;;;;;;;31.87;17.47;;;7.80;79.00;;;;;;4975639;28;20594;-88
2023/05/02 04:22:26;;;;;;;32.93;18.77;;;7.70;79.00;;;;;;4975641;28;20183;-88
2023/05/02 04:24:52;;;;;;;27.27;16.83;;;7.80;79.10;;;;;;4976730;28;20179;-88
2023/05/02 04:27:17;;;;;;;25.43;15.93;;;7.80;79.00;;;;;;4975647;28;20210;-88
2023/05/02 04:29:43;;;;;;;32.97;16.33;;;7.70;79.20;;;;;;4975721;28;20175;-88
2023/05/02 04:32:10;;;;;;;26.53;15.90;;;7.80;78.80;;;;;;4974858;28;20325;-88
2023/05/02 04:34:35;;;;;;;26.57;9.53;;;7.80;78.50;;;;;;4976324;28;20194;-88
2023/05/02 04:37:01;;;;;;;29.57;9.80;;;7.80;78.30;;;;;;4975249;28;20688;-88
2023/05/02 04:39:26;;;;;;;37.03;17.93;;;7.80;78.40;;;;;;4976444;28;20183;-88
2023/05/02 04:41:52;;;;;;;32.97;17.90;;;7.70;78.10;;;;;;4975268;28;20277;-88
2023/05/02 04:44:18;;;;;;;31.10;20.00;;;7.70;77.90;;;;;;4976442;28;20174;-88
2023/05/02 04:46:43;;;;;;;31.93;18.40;;;7.80;77.60;;;;;;4976205;28;20210;-88
2023/05/02 04:49:09;;;;;;;28.57;18.03;;;7.70;77.70;;;;;;4975091;28;20186;-88
2023/05/02 04:51:34;;;;;;;30.23;17.13;;;7.70;77.50;;;;;;4975387;28;20179;-88
2023/05/02 04:54:00;;;;;;;30.40;17.47;;;7.70;77.40;;;;;;4975096;28;20175;-88
2023/05/02 04:56:26;;;;;;;21.60;9.63;;;7.70;77.50;;;;;;4975004;28;20253;-88
2023/05/02 04:58:51;;;;;;;18.33;11.00;;;7.70;77.70;;;;;;4974942;28;20657;-88
2023/05/02 05:01:17;;;;;;;26.50;10.30;;;7.80;77.80;;;;;;4974976;28;20182;-88
2023/05/02 05:03:42;;;;;;;24.93;9.60;;;7.70;77.70;;;;;;4975041;28;20183;-88
2023/05/02 05:06:08;;;;;;;26.63;8.97;;;7.70;78.00;;;;;;4976187;28;20210;-88
2023/05/02 05:08:33;;;;;;;27.43;8.97;;;7.70;77.80;;;;;;4975916;28;20178;-88
2023/05/02 05:10:59;;;;;;;29.57;10.00;;;7.70;77.30;;;;;;4974781;28;20257;-88
2023/05/02 05:13:24;;;;;;;29.60;9.63;;;7.70;77.00;;;;;;4975919;28;20171;-88
2023/05/02 05:15:50;;;;;;;30.27;12.73;;;7.70;76.40;;;;;;4975810;28;20795;-88
2023/05/02 05:18:15;;;;;;;22.63;9.83;;;7.60;76.10;;;;;;4974461;28;20191;-88
2023/05/02 05:20:41;;;;;;;21.50;9.43;;;7.60;76.20;;;;;;4974524;28;20604;-88
2023/05/02 05:23:06;;;;;;;21.90;9.47;;;7.60;75.90;;;;;;4975611;28;20167;-88
2023/05/02 05:25:32;;;;;;;22.53;15.47;;;7.60;75.50;;;;;;4975564;28;20685;-88
2023/05/02 05:28:01;;;;;;;22.47;17.87;;;7.60;75.60;;;;;;4975591;28;20194;-88
2023/05/02 05:30:29;;;;;;;22.33;18.67;;;7.60;75.70;;;;;;4974252;28;20174;-87
2023/05/02 05:32:55;;;;;;;29.30;19.50;;;7.60;75.30;;;;;;4974311;28;20190;-89
2023/05/02 05:35:21;;;;;;;20.53;17.93;;;7.60;75.20;;;;;;4974267;28;20189;-88
2023/05/02 05:37:46;;;;;;;30.70;18.40;;;7.60;75.00;;;;;;4974159;28;20198;-88
2023/05/02 05:40:12;;;;;;;28.70;17.33;;;7.60;74.80;;;;;;4975408;28;20258;-88
2023/05/02 05:42:37;;;;;;;19.97;8.60;;;7.60;74.70;;;;;;4974175;28;20187;-88
2023/05/02 05:45:03;;;;;;;25.00;9.60;;;7.60;74.50;;;;;;4973645;28;20248;-88
2023/05/02 05:47:29;;;;;;;19.10;9.67;;;7.60;73.70;;;;;;4974149;28;20685;-88
2023/05/02 05:49:55;;;;;;;25.20;18.13;;;7.60;74.00;;;;;;4975258;28;20178;-88
2023/05/02 05:52:21;;;;;;;26.83;16.87;;;7.60;74.00;;;;;;4973962;28;20214;-88
2023/05/02 05:54:47;;;;;;;21.67;18.20;;;7.60;74.10;;;;;;4973954;28;20174;-88
2023/05/02 05:57:12;;;;;;;28.93;20.50;;;7.60;73.30;;;;;;4973863;28;20760;-88
2023/05/02 05:59:38;;;;;;;23.57;19.13;;;7.60;73.10;;;;;;4973739;28;20649;-88
2023/05/02 06:02:04;;;;;;;26.00;19.57;;;7.60;72.80;;;;;;4973888;28;20266;-88
2023/05/02 06:04:30;;;;;;;22.10;18.23;;;7.60;72.70;;;;;;4975062;28;20194;-88
2023/05/02 06:06:55;;;;;;;13.23;9.50;;;7.60;72.60;;;;;;4973781;28;20206;-88
2023/05/02 06:09:21;;;;;;;18.90;11.00;;;7.60;72.70;;;;;;4990358;28;20207;-88
2023/05/02 06:11:46;;;;;;;14.87;10.97;;;7.60;70.80;;;;;;4989879;28;20181;-88
2023/05/02 06:14:12;;;;;;;22.07;19.07;;;7.60;70.50;;;;;;4973545;28;20181;-88
2023/05/02 06:16:37;;;;;;;22.30;19.87;;;7.60;70.60;;;;;;4973533;28;20195;-88
2023/05/02 06:19:03;;;;;;;22.27;17.50;;;7.70;70.20;;;;;;4973561;28;20661;-88
2023/05/02 06:21:28;;;;;;;21.50;19.70;;;7.70;70.30;;;;;;4975014;28;20194;-88
2023/05/02 06:23:54;;;;;;;21.13;18.40;;;7.70;68.90;;;;;;4973477;28;20187;-88
2023/05/02 06:26:20;;;;;;;22.03;17.80;;;7.70;68.60;;;;;;4973260;28;20207;-88
2023/05/02 06:28:46;;;;;;;14.23;12.43;;;7.70;68.40;;;;;;4973424;28;20171;-88
2023/05/02 06:31:11;;;;;;;14.83;12.20;;;7.80;68.70;;;;;;4974727;28;20675;-89
2023/05/02 06:33:37;;;;;;;19.57;12.20;;;7.80;68.40;;;;;;4973325;28;20198;-88
2023/05/02 06:36:02;;;;;;;21.43;19.37;;;7.80;67.90;;;;;;4973891;28;20170;-88
2023/05/02 06:38:28;;;;;;;19.33;17.57;;;7.80;68.00;;;;;;4973212;28;20226;-88
2023/05/02 06:40:54;;;;;;;20.70;18.67;;;7.90;68.40;;;;;;4973200;28;20220;-88
2023/05/02 06:43:19;;;;;;;22.63;20.30;;;7.90;68.60;;;;;;4973226;28;20206;-88
2023/05/02 06:45:45;;;;;;;22.33;20.27;;;7.90;68.40;;;;;;4974423;28;20273;-88
2023/05/02 06:48:10;;;;;;;20.63;18.83;;;8.00;68.90;;;;;;4973191;28;20202;-88
2023/05/02 06:50:36;;;;;;;13.30;11.57;;;8.10;68.30;;;;;;4974431;28;20229;-88
2023/05/02 06:53:03;;;;;;;22.47;12.30;;;8.00;67.70;;;;;;4973177;28;20198;-88
2023/05/02 06:55:29;;;;;;;13.97;12.50;;;8.00;66.20;;;;;;4974595;28;20187;-88
2023/05/02 06:58:10;;;;;;;21.90;19.60;;;8.20;66.40;;;;;;4978278;28;20194;-89
2023/05/02 07:00:35;;;;;;;22.83;21.07;;;8.10;66.00;;;;;;4993484;28;20229;-88
2023/05/02 07:03:01;;;;;;;23.63;21.17;;;8.20;67.20;;;;;;4977108;28;20187;-88
2023/05/02 07:05:29;;;;;;;21.17;19.03;;;8.10;67.10;;;;;;4976967;28;20230;-88
2023/05/02 07:07:55;;;;;;;24.53;22.50;;;8.10;67.30;;;;;;4977151;28;20688;-88
2023/05/02 07:10:21;;;;;;;24.77;22.37;;;8.10;65.60;;;;;;4993170;28;20261;-88
2023/05/02 07:12:47;;;;;;;15.77;13.70;;;8.00;65.20;;;;;;4978184;28;20190;-88
2023/05/02 07:15:12;;;;;;;15.17;13.60;;;8.00;66.60;;;;;;4976873;28;20649;-88
2023/05/02 07:17:39;;;;;;;15.57;12.67;;;8.10;65.90;;;;;;4977944;28;20199;-88
2023/05/02 07:20:05;;;;;;;31.17;22.67;;;8.20;65.60;;;;;;4976731;28;20175;-88
2023/05/02 07:22:31;;;;;;;23.07;21.03;;;8.20;65.00;;;;;;4976685;28;20183;-88
2023/05/02 07:24:58;;;;;;;24.23;21.17;;;8.30;65.40;;;;;;4977743;28;20182;-89
2023/05/02 07:27:23;;;;;;;23.00;21.00;;;8.20;66.70;;;;;;4976657;28;20203;-88
2023/05/02 07:29:49;;;;;;;24.43;22.23;;;8.30;66.70;;;;;;4977758;28;20175;-88
2023/05/02 07:32:14;;;;;;;24.10;21.67;;;8.30;64.60;;;;;;4976489;28;20186;-88
2023/05/02 07:34:40;;;;;;;17.53;14.23;;;8.30;64.50;;;;;;4976505;28;20584;-88
2023/05/02 07:37:06;;;;;;;16.60;13.70;;;8.40;64.40;;;;;;4977637;28;20225;-88
2023/05/02 07:39:32;;;;;;;24.40;22.00;;;8.50;64.00;;;;;;4992569;28;20192;-88
2023/05/02 07:41:57;;;;;;;22.03;19.87;;;8.50;63.70;;;;;;4976349;28;20178;-89
2023/05/02 07:44:23;;;;;;;25.70;23.27;;;8.70;63.80;;;;;;4976300;28;20189;-88
2023/05/02 07:46:48;;;;;;;23.83;21.80;;;8.80;63.30;;;;;;4977626;28;20345;-88
2023/05/02 07:49:14;;;;;;;24.03;21.87;;;8.80;62.50;;;;;;4977399;28;20229;-88
2023/05/02 07:51:40;;;;;;;25.53;23.47;;;8.90;64.50;;;;;;4976261;28;20179;-88
2023/05/02 07:54:19;;;;;;;15.13;13.67;;;9.00;62.50;;;;;;4976196;28;20183;-89
2023/05/02 07:56:46;;;;;;;17.47;12.87;;;9.00;62.10;;;;;;4977258;28;20205;-89
2023/05/02 07:59:11;;;;;;;17.70;13.30;;;9.10;61.90;;;;;;4975992;28;20183;-89
2023/05/02 08:01:38;;;;;;;23.73;21.27;;;9.20;61.80;;;;;;4977338;28;20226;-89
2023/05/02 08:04:04;;;;;;;23.73;21.40;;;9.20;61.30;;;;;;4977397;28;20540;-88
2023/05/02 08:06:31;;;;;;;21.77;19.77;;;9.10;62.40;;;;;;4977205;28;20258;-88
2023/05/02 08:08:57;;;;;;;22.57;20.43;;;9.20;62.80;;;;;;4975928;28;20660;-89
2023/05/02 08:11:24;;;;;;;21.70;20.20;;;9.10;58.40;;;;;;4975895;28;20179;-88
2023/05/02 08:13:54;;;;;;;14.03;12.07;;;9.20;59.80;;;;;;4975799;28;20175;-88
2023/05/02 08:16:20;;;;;;;12.63;11.60;;;9.40;59.40;;;;;;4975733;28;20179;-88
2023/05/02 08:18:46;;;;;;;16.73;12.77;;;9.50;59.70;;;;;;4975651;28;20182;-88
2023/05/02 08:21:12;;;;;;;21.30;19.20;;;9.70;58.60;;;;;;4976893;28;20179;-88
2023/05/02 08:23:39;;;;;;;20.43;18.80;;;10.00;60.20;;;;;;4976824;28;20206;-89
2023/05/02 08:26:05;;;;;;;21.20;19.00;;;10.10;59.40;;;;;;4977086;28;20237;-88
2023/05/02 08:28:30;;;;;;;20.60;19.07;;;10.10;60.60;;;;;;4977096;28;20346;-88
2023/05/02 08:30:56;;;;;;;19.97;18.27;;;9.90;58.90;;;;;;4977283;28;20177;-88
2023/05/02 08:33:22;;;;;;;12.40;11.10;;;9.70;61.20;;;;;;4976681;28;20182;-88
2023/05/02 08:35:48;;;;;;;16.10;12.37;;;10.10;61.90;;;;;;4975401;28;20183;-88
2023/05/02 08:38:13;;;;;;;20.33;18.57;;;10.20;60.90;;;;;;4976464;28;20273;-89
2023/05/02 08:40:39;;;;;;;21.10;19.10;;;10.30;60.90;;;;;;4975440;28;20641;-88
2023/05/02 08:43:05;;;;;;;19.87;18.27;;;10.30;60.90;;;;;;4976491;28;20226;-89
2023/05/02 08:45:37;;;;;;;19.80;17.93;;;10.30;60.90;;;;;;4975336;28;20583;-88
2023/05/02 08:48:09;;;;;;;19.93;18.47;;;10.20;61.30;;;;;;4975097;28;20209;-88
2023/05/02 08:50:41;;;;;;;20.37;18.70;;;10.20;62.00;;;;;;4976329;28;20199;-88
2023/05/02 08:53:08;;;;;;;15.47;11.63;;;10.00;63.30;;;;;;4976389;28;20155;-88
2023/05/02 08:55:38;;;;;;;13.40;12.10;;;10.10;63.50;;;;;;4975086;28;20279;-90
2023/05/02 08:58:05;;;;;;;19.37;17.70;;;10.00;62.70;;;;;;4974911;28;20206;-89
2023/05/02 09:00:31;;;;;;;19.53;17.97;;;10.10;62.60;;;;;;4991490;28;20539;-89
2023/05/02 09:03:22;;;;;;;19.47;17.67;;;10.20;61.50;;;;;;4976410;28;20175;-86
2023/05/02 09:05:54;;;;;;;20.20;18.70;;;10.30;62.80;;;;;;4975674;28;20249;-88
2023/05/02 09:08:23;;;;;;;20.03;18.30;;;10.30;64.00;;;;;;4976265;28;20254;-87
2023/05/02 09:10:50;;;;;;;11.77;10.73;;;10.70;62.70;;;;;;4976415;28;20179;-87
2023/05/02 09:13:35;;;;;;;13.10;11.90;;;10.90;63.70;;;;;;4974748;28;20179;-87
2023/05/02 09:16:09;;;;;;;16.50;13.23;;;10.80;63.90;;;;;;4975856;28;20175;-87
2023/05/02 09:18:40;;;;;;;16.87;13.27;;;10.80;62.00;;;;;;4974906;28;20203;-89
2023/05/02 09:21:07;;;;;;;14.57;13.10;;;10.60;62.30;;;;;;4975445;28;20179;-86
2023/05/02 09:23:39;;;;;;;14.17;12.90;;;10.80;63.00;;;;;;4974543;28;20271;-86
2023/05/02 09:26:15;;;;;;;13.97;12.60;;;10.80;62.50;;;;;;4974413;28;20220;-88
2023/05/02 09:28:45;;;;;;;13.50;11.67;;;10.50;63.90;;;;;;4990722;28;20178;-89
2023/05/02 09:31:13;;;;;;;11.30;10.40;;;10.40;62.70;;;;;;4975559;28;20155;-89
2023/05/02 09:33:40;;;;;;;18.13;16.70;;;10.60;63.00;;;;;;4974386;28;20257;-85
2023/05/02 09:36:07;;;;;;;16.63;12.03;;;10.80;61.90;;;;;;4974377;28;20182;-85
2023/05/02 09:38:33;;;;;;;12.67;11.67;;;11.30;62.20;;;;;;4974166;28;20199;-87
2023/05/02 09:40:59;;;;;;;13.77;12.47;;;11.70;58.90;;;;;;4974482;28;20210;-86
2023/05/02 09:43:25;;;;;;;16.53;13.50;;;11.90;60.30;;;;;;4974440;28;20664;-85
2023/05/02 09:46:02;;;;;;;13.60;12.37;;;11.70;58.30;;;;;;4975355;28;20199;-86
2023/05/02 09:48:30;;;;;;;15.13;12.37;;;11.40;59.00;;;;;;4975283;28;20218;-89
2023/05/02 09:50:56;;;;;;;15.40;13.87;;;11.40;59.30;;;;;;4974169;28;20213;-86
2023/05/02 09:53:24;;;;;;;19.10;17.43;;;11.10;62.20;;;;;;4973994;28;20187;-86
2023/05/02 09:56:03;;;;;;;19.03;17.23;;;10.80;63.30;;;;;;4975220;28;20589;-87
2023/05/02 09:58:29;;;;;;;18.00;16.57;;;10.30;64.80;;;;;;4975068;28;20680;-89
2023/05/02 10:00:56;;;;;;;18.50;16.90;;;10.60;66.50;;;;;;4973880;28;20645;-89
2023/05/02 10:03:23;;;;;;;12.73;11.40;;;10.80;65.20;;;;;;4973737;28;20698;-86
2023/05/02 10:05:49;;;;;;;12.37;11.13;;;11.50;66.00;;;;;;4973800;28;20206;-86
2023/05/02 10:08:18;;;;;;;14.27;11.80;;;11.50;62.50;;;;;;4973733;28;20253;-85
2023/05/02 10:10:51;;;;;;;19.17;17.70;;;11.80;62.60;;;;;;4973698;28;20171;-86
2023/05/02 10:13:21;;;;;;;19.83;18.10;;;11.80;63.30;;;;;;4974078;28;20163;-89
2023/05/02 10:15:48;;;;;;;19.40;17.70;;;12.00;61.30;;;;;;4974967;28;20171;-88
2023/05/02 10:18:22;;;;;;;19.17;17.37;;;11.90;60.00;;;;;;4974000;28;20205;-88
2023/05/02 10:20:57;;;;;;;13.93;12.63;;;11.90;61.60;;;;;;4973951;28;20177;-88
2023/05/02 10:23:26;;;;;;;14.10;12.60;;;11.70;61.90;;;;;;4975037;28;20169;-89
2023/05/02 10:25:52;;;;;;;16.77;15.37;;;11.60;61.80;;;;;;4973456;28;20752;-88
2023/05/02 10:28:19;;;;;;;18.10;16.50;;;11.80;62.00;;;;;;4973374;28;20248;-88
2023/05/02 10:30:45;;;;;;;17.60;16.10;;;12.00;60.90;;;;;;4972770;28;20178;-88
2023/05/02 10:33:13;;;;;;;18.30;16.43;;;11.90;58.70;;;;;;4973216;28;20191;-88
2023/05/02 10:35:42;;;;;;;19.33;17.07;;;11.80;60.00;;;;;;4973329;28;20179;-88
2023/05/02 10:38:09;;;;;;;17.97;16.20;;;11.60;61.30;;;;;;4973532;28;20210;-88
2023/05/02 10:40:35;;;;;;;21.83;12.20;;;11.50;61.60;;;;;;4974455;28;20181;-88
2023/05/02 10:43:00;;;;;;;19.53;12.87;;;11.30;63.20;;;;;;4975495;28;20253;-88
2023/05/02 10:45:34;;;;;;;18.50;16.87;;;11.20;62.50;;;;;;4973391;28;20288;-87
2023/05/02 10:48:29;;;;;;;18.13;16.47;;;11.20;63.50;;;;;;4973398;28;20245;-88
2023/05/02 10:50:57;;;;;;;17.33;16.03;;;11.00;64.40;;;;;;4973247;28;20192;-88
2023/05/02 10:53:38;;;;;;;17.40;16.17;;;10.90;65.60;;;;;;4973239;28;20175;-88
2023/05/02 10:56:24;;;;;;;17.80;16.30;;;10.90;65.00;;;;;;4973594;28;20186;-89
2023/05/02 10:58:52;;;;;;;15.40;11.73;;;10.80;63.90;;;;;;4989240;28;20666;-88
2023/05/02 11:01:30;;;;;;;12.10;11.13;;;10.50;65.80;;;;;;4974377;28;20250;-88
2023/05/02 11:03:57;;;;;;;12.93;11.73;;;10.80;64.50;;;;;;4989636;28;20265;-88
2023/05/02 11:06:28;;;;;;;19.87;18.00;;;10.80;63.40;;;;;;4974220;28;20205;-88
2023/05/02 11:09:17;;;;;;;19.30;17.83;;;11.00;63.10;;;;;;4973094;28;20631;-89
2023/05/02 11:11:44;;;;;;;19.70;17.93;;;11.30;63.20;;;;;;4974117;28;20746;-89
2023/05/02 11:14:10;;;;;;;18.50;17.30;;;11.60;59.50;;;;;;4973018;28;20258;-88
2023/05/02 11:17:04;;;;;;;19.63;17.93;;;11.50;61.40;;;;;;4973012;28;20222;-88
2023/05/02 11:19:55;;;;;;;14.97;12.63;;;11.30;61.40;;;;;;4989296;28;20175;-88
2023/05/02 11:22:23;;;;;;;12.37;11.20;;;11.70;62.20;;;;;;4989042;28;20186;-88
2023/05/02 11:24:49;;;;;;;19.30;17.60;;;11.60;61.80;;;;;;4989450;28;20219;-88
2023/05/02 11:27:32;;;;;;;19.97;17.87;;;11.30;61.30;;;;;;4974058;28;20199;-89
2023/05/02 11:30:04;;;;;;;18.30;16.80;;;11.20;62.10;;;;;;4974047;28;20652;-88
2023/05/02 11:32:48;;;;;;;18.77;17.33;;;11.00;62.50;;;;;;4972858;28;20219;-88
2023/05/02 11:35:19;;;;;;;18.33;16.80;;;11.10;61.60;;;;;;4989059;28;20209;-88
2023/05/02 11:37:54;;;;;;;13.50;12.20;;;11.30;60.80;;;;;;4974017;28;20568;-89
2023/05/02 11:40:20;;;;;;;13.43;12.00;;;11.20;59.40;;;;;;4988944;28;20213;-89
2023/05/02 11:42:46;;;;;;;20.33;18.23;;;11.50;59.60;;;;;;4975344;28;20170;-88
2023/05/02 11:45:12;;;;;;;19.37;17.60;;;12.00;59.50;;;;;;4976235;28;20185;-88
2023/05/02 11:47:37;;;;;;;22.00;18.23;;;12.20;59.70;;;;;;4976424;28;20685;-88
2023/05/02 11:50:08;;;;;;;19.93;18.13;;;12.30;57.90;;;;;;4976325;28;20672;-88
2023/05/02 11:52:42;;;;;;;12.93;11.93;;;12.50;57.70;;;;;;4976252;28;20163;-88
2023/05/02 11:55:10;;;;;;;11.80;10.70;;;13.00;56.20;;;;;;4976611;28;20175;-89
2023/05/02 11:57:36;;;;;;;13.00;12.10;;;12.90;54.40;;;;;;4976084;28;20692;-88
2023/05/02 12:00:03;;;;;;;19.63;18.00;;;12.90;53.60;;;;;;4976124;28;20661;-87
2023/05/02 12:02:46;;;;;;;18.70;17.20;;;12.80;55.10;;;;;;4977365;28;20175;-88
2023/05/02 12:05:14;;;;;;;19.30;17.70;;;12.30;55.20;;;;;;4975991;28;20174;-88
2023/05/02 12:07:40;;;;;;;19.83;18.17;;;11.80;57.10;;;;;;4976746;28;20285;-88
2023/05/02 12:10:07;;;;;;;14.73;12.30;;;11.60;57.10;;;;;;4975902;28;20170;-89
2023/05/02 12:12:33;;;;;;;13.17;11.93;;;11.20;57.40;;;;;;4975903;28;20190;-88
2023/05/02 12:15:03;;;;;;;19.70;18.10;;;11.50;59.20;;;;;;4975797;28;20257;-89
2023/05/02 12:17:30;;;;;;;18.60;17.13;;;11.50;57.90;;;;;;4975953;28;20289;-88
2023/05/02 12:19:56;;;;;;;18.97;17.40;;;11.50;57.90;;;;;;4975829;28;20182;-88
2023/05/02 12:22:24;;;;;;;19.80;17.77;;;11.30;58.70;;;;;;4976027;28;20190;-87
2023/05/02 12:24:50;;;;;;;18.50;17.20;;;11.40;58.50;;;;;;4975607;28;20186;-89
2023/05/02 12:27:16;;;;;;;13.83;11.77;;;11.50;58.00;;;;;;4976662;28;20241;-88
2023/05/02 12:29:43;;;;;;;12.40;11.30;;;11.20;58.00;;;;;;4975567;28;20197;-88
2023/05/02 12:32:09;;;;;;;17.90;16.60;;;11.10;58.30;;;;;;4975432;28;20241;-88
2023/05/02 12:34:36;;;;;;;17.27;15.97;;;11.20;58.70;;;;;;4975962;28;20186;-88
2023/05/02 12:37:03;;;;;;;17.83;16.43;;;11.10;58.90;;;;;;4976875;28;20213;-88
2023/05/02 12:39:37;;;;;;;18.83;17.13;;;10.80;59.90;;;;;;4975410;28;20183;-88
2023/05/02 12:42:13;;;;;;;20.50;16.80;;;10.70;60.10;;;;;;4975642;28;20182;-87